Time;durP1;ratioP1;P1;durP2;ratioP2;P2;SDS_P1;SDS_P2;PMS_P1;PMS_P2;Temp;Humidity;BMP_temperature;BMP_pressure;BME280_temperature;BME280_humidity;BME280_pressure;Samples;Min_cycle;Max_cycle;Signal;HPM_P1;HPM_P2
2022/07/08 00:01:56;;;;;;;5.53;3.22;;;16.20;81.00;;;15.05;100.00;96834.75;4950641;28;20474;-64
2022/07/08 00:04:22;;;;;;;5.53;3.10;;;16.30;80.80;;;15.04;100.00;96829.63;4966000;28;20109;-65
2022/07/08 00:06:48;;;;;;;5.90;3.10;;;16.20;80.90;;;15.03;100.00;96828.81;4932177;28;20101;-64
2022/07/08 00:09:14;;;;;;;6.13;3.13;;;16.20;81.00;;;15.02;100.00;96824.53;4963039;28;20051;-65
2022/07/08 00:11:41;;;;;;;9.75;3.35;;;16.20;80.70;;;15.02;100.00;96829.84;4960716;28;20035;-65
2022/07/08 00:14:06;;;;;;;5.15;3.30;;;16.20;80.80;;;15.01;100.00;96820.25;4966639;28;20126;-64
2022/07/08 00:16:33;;;;;;;4.95;3.10;;;16.20;81.00;;;15.01;100.00;96820.25;4949802;28;20038;-65
2022/07/08 00:19:00;;;;;;;3.63;2.80;;;16.20;80.90;;;15.00;100.00;96823.94;4950574;28;20047;-64
2022/07/08 00:21:26;;;;;;;5.03;3.10;;;16.20;80.80;;;14.99;100.00;96820.47;4949508;28;20046;-65
2022/07/08 00:23:51;;;;;;;5.47;3.17;;;16.20;80.80;;;14.97;100.00;96814.53;4936073;28;20039;-67
2022/07/08 00:26:17;;;;;;;6.28;2.97;;;16.20;81.10;;;14.96;100.00;96820.84;4949880;28;20098;-65
2022/07/08 00:28:43;;;;;;;5.20;3.47;;;16.10;80.80;;;14.96;100.00;96820.03;4950428;28;20035;-66
2022/07/08 00:31:09;;;;;;;5.07;3.15;;;16.10;80.80;;;14.96;100.00;96822.69;4938295;28;20084;-64
2022/07/08 00:33:34;;;;;;;4.78;3.33;;;16.10;81.00;;;14.95;100.00;96815.75;4954348;28;20398;-65
2022/07/08 00:36:00;;;;;;;5.57;3.13;;;16.20;81.10;;;14.96;100.00;96828.00;4970275;28;20118;-65
2022/07/08 00:38:26;;;;;;;4.18;2.90;;;16.20;80.80;;;14.94;100.00;96824.72;4967954;28;22445;-65
2022/07/08 00:40:51;;;;;;;3.72;2.92;;;16.10;80.80;;;14.94;100.00;96832.66;4937454;28;20035;-65
2022/07/08 00:43:37;;;;;;;3.25;2.90;;;16.10;80.60;;;14.94;100.00;96830.03;4953418;28;20050;-65
2022/07/08 00:46:03;;;;;;;6.05;3.03;;;16.10;80.90;;;14.93;100.00;96834.47;4959159;28;20030;-64
2022/07/08 00:48:29;;;;;;;7.97;3.00;;;16.10;80.80;;;14.94;100.00;96835.31;4965098;28;20555;-64
2022/07/08 00:50:55;;;;;;;4.70;3.22;;;16.20;80.90;;;14.95;100.00;96831.66;4970668;28;20097;-64
2022/07/08 00:53:21;;;;;;;6.63;3.70;;;16.20;80.80;;;14.95;100.00;96831.66;4937287;28;20474;-64
2022/07/08 00:55:47;;;;;;;4.50;3.20;;;16.10;80.50;;;14.94;100.00;96830.84;4954320;28;20081;-67
2022/07/08 00:58:12;;;;;;;5.57;3.13;;;16.20;80.60;;;14.96;100.00;96833.28;4952464;28;20047;-65
2022/07/08 01:00:38;;;;;;;5.25;3.40;;;16.10;80.50;;;14.95;100.00;96835.13;4968766;28;20112;-66
2022/07/08 01:03:04;;;;;;;5.55;3.03;;;16.10;80.20;;;14.92;100.00;96834.66;4938911;28;20118;-67
2022/07/08 01:05:30;;;;;;;7.35;3.08;;;16.00;80.50;;;14.91;100.00;96833.03;4952299;28;20070;-67
2022/07/08 01:07:56;;;;;;;4.63;3.13;;;16.10;80.80;;;14.90;100.00;96836.72;4937917;28;20038;-66
2022/07/08 01:10:22;;;;;;;5.60;3.25;;;16.10;80.80;;;14.87;100.00;96837.09;4938074;28;20391;-67
2022/07/08 01:12:47;;;;;;;5.70;2.83;;;16.00;80.50;;;14.85;100.00;96831.19;4951146;28;20090;-66
2022/07/08 01:15:13;;;;;;;4.47;3.10;;;16.00;80.60;;;14.85;100.00;96833.84;4952638;28;20049;-66
2022/07/08 01:17:45;;;;;;;4.50;3.17;;;16.10;80.50;;;14.85;100.00;96839.13;4964558;28;20097;-68
2022/07/08 01:20:11;;;;;;;4.70;3.00;;;16.00;80.60;;;14.82;100.00;96842.19;4954404;28;20498;-67
2022/07/08 01:22:37;;;;;;;4.72;3.20;;;16.00;80.70;;;14.82;100.00;96843.00;4922680;28;20042;-67
2022/07/08 01:25:07;;;;;;;6.72;3.33;;;16.00;80.90;;;14.82;100.00;96843.00;4971187;28;20414;-67
2022/07/08 01:27:33;;;;;;;4.72;3.00;;;16.00;81.00;;;14.79;100.00;96837.28;4937103;28;20035;-67
2022/07/08 01:29:59;;;;;;;5.20;2.95;;;15.90;80.80;;;14.80;100.00;96844.22;4952039;28;20816;-67
2022/07/08 01:32:32;;;;;;;5.68;3.72;;;16.00;80.90;;;14.81;100.00;96841.38;4949689;28;20113;-67
2022/07/08 01:34:58;;;;;;;6.55;3.05;;;16.00;80.90;;;14.79;100.00;96847.88;4950118;28;20617;-67
2022/07/08 01:37:23;;;;;;;6.22;3.35;;;15.90;81.10;;;14.79;100.00;96858.47;4950263;28;20047;-67
2022/07/08 01:39:49;;;;;;;5.65;2.97;;;16.00;81.00;;;14.78;100.00;96857.66;4936358;28;20097;-67
2022/07/08 01:42:15;;;;;;;3.80;3.00;;;16.00;80.80;;;14.79;100.00;96863.78;4950213;28;20098;-66
2022/07/08 01:44:40;;;;;;;6.40;3.33;;;16.00;80.90;;;14.77;100.00;96868.44;4936357;28;20039;-67
2022/07/08 01:47:06;;;;;;;3.53;2.55;;;16.00;80.90;;;14.78;100.00;96867.44;4936979;28;20035;-66
2022/07/08 01:49:32;;;;;;;4.22;2.63;;;16.00;80.80;;;14.79;100.00;96869.06;4967054;28;20177;-67
2022/07/08 01:51:58;;;;;;;3.63;1.92;;;16.00;80.30;;;14.76;100.00;96870.28;4953032;28;20550;-65
2022/07/08 01:54:24;;;;;;;3.05;1.80;;;15.90;79.40;;;14.74;100.00;96868.84;4951655;28;20113;-65
2022/07/08 01:56:49;;;;;;;2.65;1.65;;;15.80;79.30;;;14.72;100.00;96873.53;4952627;28;20042;-64
2022/07/08 01:59:15;;;;;;;5.05;2.00;;;15.90;79.30;;;14.73;100.00;96869.84;4951344;28;20484;-66
2022/07/08 02:01:41;;;;;;;3.58;1.60;;;16.00;79.30;;;14.73;100.00;96872.50;4952356;28;20035;-65
2022/07/08 02:04:06;;;;;;;3.47;1.58;;;16.00;79.80;;;14.69;100.00;96875.53;4969090;28;20118;-66
2022/07/08 02:06:32;;;;;;;3.03;1.55;;;15.90;79.70;;;14.65;100.00;96879.59;4967860;28;20086;-66
2022/07/08 02:08:58;;;;;;;8.68;1.70;;;15.90;79.30;;;14.63;100.00;96889.56;4949658;28;20073;-66
2022/07/08 02:14:08;;;;;;;2.53;1.20;;;15.80;79.30;;;14.53;100.00;96889.09;4952142;28;20589;-66
2022/07/08 02:16:34;;;;;;;1.98;1.35;;;15.70;79.20;;;14.52;100.00;96891.94;4966002;28;20075;-66
2022/07/08 02:19:00;;;;;;;3.72;1.38;;;15.70;79.60;;;14.50;100.00;96902.72;4951072;28;20121;-67
2022/07/08 02:21:27;;;;;;;3.67;1.52;;;15.70;79.50;;;14.49;100.00;96903.75;4950464;28;20043;-66
2022/07/08 02:23:52;;;;;;;2.85;1.60;;;15.70;79.70;;;14.47;100.00;96911.03;4950714;28;20490;-66
2022/07/08 02:26:18;;;;;;;3.47;1.67;;;15.70;79.10;;;14.44;100.00;96903.47;4934215;28;20036;-66
2022/07/08 02:28:44;;;;;;;3.63;1.90;;;15.60;78.80;;;14.43;100.00;96912.44;4965183;28;20447;-66
2022/07/08 02:31:10;;;;;;;8.43;1.95;;;15.60;78.70;;;14.40;100.00;96915.44;4970515;28;20465;-67
2022/07/08 02:33:35;;;;;;;5.88;1.80;;;15.60;78.70;;;14.38;100.00;96920.09;4970283;28;20039;-66
2022/07/08 02:36:01;;;;;;;4.07;1.90;;;15.60;79.00;;;14.35;100.00;96929.25;4967374;28;20074;-67
2022/07/08 02:38:27;;;;;;;6.30;2.22;;;15.60;79.00;;;14.33;100.00;96918.03;4949522;28;20131;-65
2022/07/08 02:40:52;;;;;;;6.40;2.05;;;15.60;78.50;;;14.29;100.00;96931.84;4948326;28;20138;-66
2022/07/08 02:43:18;;;;;;;6.18;2.08;;;15.50;78.60;;;14.25;100.00;96925.28;4967930;28;20034;-66
2022/07/08 02:45:44;;;;;;;5.35;1.70;;;15.40;78.50;;;14.22;100.00;96937.06;4948049;28;20044;-66
2022/07/08 02:48:10;;;;;;;6.97;2.25;;;15.40;78.50;;;14.19;100.00;96941.94;4929251;28;20511;-65
2022/07/08 02:50:36;;;;;;;4.57;1.75;;;15.40;77.50;;;14.15;99.71;96940.69;4946444;28;20051;-66
2022/07/08 02:53:01;;;;;;;3.78;1.58;;;15.40;77.50;;;14.14;100.00;96944.34;4939222;28;20101;-66
2022/07/08 02:55:27;;;;;;;6.18;1.60;;;15.40;77.00;;;14.13;98.54;96948.00;4966752;28;20074;-67
2022/07/08 02:57:53;;;;;;;3.70;1.35;;;15.30;75.90;;;14.06;98.70;96946.13;4950517;28;20105;-66
2022/07/08 03:00:18;;;;;;;6.45;1.40;;;15.30;75.80;;;14.04;98.11;96945.50;4966461;28;20670;-65
2022/07/08 03:02:44;;;;;;;5.25;1.48;;;15.20;75.20;;;14.02;96.33;96952.78;4983472;28;20577;-67
2022/07/08 03:05:10;;;;;;;7.45;1.42;;;15.20;75.40;;;13.98;96.37;96959.44;4937612;28;20089;-65
2022/07/08 03:07:36;;;;;;;5.60;1.42;;;15.20;74.70;;;13.94;94.61;96963.50;4948845;28;20031;-65
2022/07/08 03:10:01;;;;;;;4.85;1.58;;;15.10;74.30;;;13.89;94.72;96968.53;4950264;28;20577;-65
2022/07/08 03:12:27;;;;;;;12.82;8.43;;;15.10;74.10;;;13.88;93.86;96966.06;4966483;28;20474;-66
2022/07/08 03:14:53;;;;;;;24.10;17.23;;;15.10;74.20;;;13.89;94.39;96976.47;4967157;28;20037;-66
2022/07/08 03:17:19;;;;;;;9.63;4.13;;;15.10;74.60;;;13.87;93.75;96978.47;4951086;28;20042;-66
2022/07/08 03:19:45;;;;;;;4.70;1.50;;;15.10;73.60;;;13.85;93.27;96982.31;4966766;28;20111;-66
2022/07/08 03:22:11;;;;;;;4.63;1.55;;;15.10;73.10;;;13.83;92.70;96985.16;4940740;28;20089;-66
2022/07/08 03:24:36;;;;;;;5.60;1.65;;;15.10;73.90;;;13.82;92.66;96991.47;4964973;28;20144;-66
2022/07/08 03:27:02;;;;;;;4.63;1.20;;;15.00;74.10;;;13.76;93.23;96994.81;4949626;28;20455;-65
2022/07/08 03:29:28;;;;;;;6.13;1.50;;;15.00;73.50;;;13.73;92.40;96995.19;4948625;28;20061;-65
2022/07/08 03:31:54;;;;;;;5.55;1.40;;;15.00;72.90;;;13.73;92.19;97003.13;4951075;28;20038;-65
2022/07/08 03:34:20;;;;;;;4.50;1.35;;;14.90;73.50;;;13.71;92.31;97002.50;4966605;28;20027;-65
2022/07/08 03:36:45;;;;;;;4.30;1.40;;;14.90;73.50;;;13.67;91.11;97007.34;4935041;28;20081;-65
2022/07/08 03:39:11;;;;;;;7.72;1.50;;;14.90;72.60;;;13.66;90.93;97016.28;4964747;28;20158;-65
2022/07/08 03:41:37;;;;;;;7.30;1.42;;;14.90;72.80;;;13.64;90.96;97013.00;4964541;28;20561;-65
2022/07/08 03:44:02;;;;;;;8.60;2.13;;;14.90;73.00;;;13.62;91.11;97015.03;4950435;28;20035;-65
2022/07/08 03:46:28;;;;;;;5.10;1.30;;;14.80;72.80;;;13.61;91.58;97017.84;4966169;28;20027;-64
2022/07/08 03:48:54;;;;;;;7.38;1.50;;;14.90;73.40;;;13.59;92.25;97019.88;4949962;28;20105;-65
2022/07/08 03:51:21;;;;;;;7.25;1.40;;;14.80;73.80;;;13.59;92.68;97028.63;4963633;28;20109;-64
2022/07/08 03:53:46;;;;;;;5.20;1.30;;;14.90;73.90;;;13.59;92.13;97035.72;4965970;28;20045;-66
2022/07/08 03:56:12;;;;;;;8.80;1.52;;;14.90;73.90;;;13.61;92.53;97033.72;4946553;28;20658;-66
2022/07/08 03:58:38;;;;;;;5.05;1.40;;;14.90;74.50;;;13.60;93.18;97030.25;4963671;28;20035;-72
2022/07/08 04:01:04;;;;;;;7.82;2.05;;;14.90;73.90;;;13.61;92.56;97039.00;4950170;28;20122;-66
2022/07/08 04:03:30;;;;;;;5.25;1.52;;;14.90;73.70;;;13.60;92.11;97045.28;4969798;28;20047;-66
2022/07/08 04:05:56;;;;;;;9.90;1.80;;;14.90;73.90;;;13.59;92.15;97041.00;4953344;28;20046;-66
2022/07/08 04:08:21;;;;;;;6.45;1.30;;;14.90;73.00;;;13.58;90.97;97049.91;4951060;28;20031;-71
2022/07/08 04:10:47;;;;;;;6.82;1.10;;;14.90;72.40;;;13.54;90.51;97053.94;4950576;28;20078;-63
2022/07/08 04:13:13;;;;;;;7.00;1.60;;;14.80;72.00;;;13.49;90.66;97051.84;4954643;28;20512;-63
2022/07/08 04:15:38;;;;;;;4.68;1.30;;;14.80;71.70;;;13.46;90.55;97055.69;4966647;28;20134;-63
2022/07/08 04:18:04;;;;;;;5.78;1.35;;;14.80;72.10;;;13.43;89.60;97060.53;4954373;28;20453;-64
2022/07/08 04:20:30;;;;;;;6.28;1.70;;;14.70;71.40;;;13.36;89.51;97057.81;4949778;28;20609;-64
2022/07/08 04:22:56;;;;;;;6.25;1.50;;;14.60;71.50;;;13.34;88.87;97059.78;4969057;28;20035;-63
2022/07/08 04:25:21;;;;;;;4.95;1.33;;;14.60;72.00;;;13.30;88.84;97061.16;4970695;28;20034;-63
2022/07/08 04:27:47;;;;;;;8.13;1.90;;;14.60;71.70;;;13.27;89.06;97058.88;4935331;28;20424;-63
2022/07/08 04:30:13;;;;;;;6.47;1.45;;;14.60;71.70;;;13.26;88.54;97057.25;4969195;28;20415;-63
2022/07/08 04:32:38;;;;;;;6.57;1.42;;;14.50;71.30;;;13.20;87.86;97063.25;4968562;28;20054;-64
2022/07/08 04:35:05;;;;;;;9.38;1.40;;;14.40;71.40;;;13.17;87.99;97058.31;4950771;28;20034;-63
2022/07/08 04:37:31;;;;;;;3.78;1.17;;;14.50;71.70;;;13.15;88.59;97065.59;4967182;28;20090;-63
2022/07/08 04:39:56;;;;;;;5.97;1.40;;;14.50;71.90;;;13.16;88.48;97069.88;4937359;28;20038;-63
2022/07/08 04:42:22;;;;;;;4.70;1.17;;;14.50;71.30;;;13.16;88.11;97078.63;4951643;28;20082;-63
2022/07/08 04:44:48;;;;;;;6.13;1.40;;;14.50;71.00;;;13.17;88.47;97066.25;4938188;28;20047;-63
2022/07/08 04:47:14;;;;;;;4.95;1.30;;;14.60;70.60;;;13.17;87.63;97076.81;4970151;28;20105;-63
2022/07/08 04:49:39;;;;;;;4.53;1.20;;;14.60;70.80;;;13.19;87.85;97072.19;4936883;28;20038;-63
2022/07/08 04:52:06;;;;;;;5.82;1.35;;;14.60;70.30;;;13.21;87.03;97075.47;4953521;28;20035;-63
2022/07/08 04:54:37;;;;;;;13.43;7.13;;;14.60;70.60;;;13.23;88.87;97088.50;4951185;28;20545;-64
2022/07/08 04:57:04;;;;;;;14.13;7.45;;;14.60;71.80;;;13.24;88.62;97085.66;4967453;28;20035;-65
2022/07/08 04:59:30;;;;;;;13.75;4.30;;;14.70;71.50;;;13.26;89.08;97088.94;4950363;28;20023;-65
2022/07/08 05:01:56;;;;;;;7.03;2.58;;;14.70;71.60;;;13.28;89.14;97097.50;4968992;28;20105;-67
2022/07/08 05:04:22;;;;;;;7.30;1.63;;;14.80;72.00;;;13.33;88.79;97091.69;4950168;28;20101;-73
2022/07/08 05:06:47;;;;;;;5.65;1.42;;;14.80;71.30;;;13.35;89.48;97087.88;4932922;28;20443;-72
2022/07/08 05:09:13;;;;;;;8.35;1.83;;;14.70;71.30;;;13.35;89.48;97093.16;4968690;28;20023;-72
2022/07/08 05:11:39;;;;;;;4.82;1.35;;;14.70;71.70;;;13.37;88.89;97091.16;4963367;28;20039;-72
2022/07/08 05:14:05;;;;;;;7.80;2.85;;;14.70;71.60;;;13.39;88.64;97094.44;4967645;28;20654;-72
2022/07/08 05:16:31;;;;;;;6.90;1.65;;;14.80;71.60;;;13.39;87.18;97088.34;4951896;28;20047;-72
2022/07/08 05:18:57;;;;;;;6.80;1.33;;;14.80;70.20;;;13.41;88.35;97102.19;4952985;28;20034;-65
2022/07/08 05:21:22;;;;;;;6.97;1.55;;;14.90;70.90;;;13.43;86.66;97098.34;4949670;28;20359;-62
2022/07/08 05:23:49;;;;;;;6.05;1.75;;;14.80;69.80;;;13.41;86.62;97108.28;4953007;28;20050;-68
2022/07/08 05:26:14;;;;;;;6.45;1.73;;;14.70;69.90;;;13.43;87.95;97105.47;4946177;28;20069;-68
2022/07/08 05:28:40;;;;;;;5.63;1.50;;;14.80;70.40;;;13.46;87.92;97105.91;4962644;28;20043;-74
2022/07/08 05:31:06;;;;;;;7.55;1.50;;;14.90;70.20;;;13.52;86.67;97108.81;4966462;28;20070;-69
2022/07/08 05:33:32;;;;;;;4.57;1.40;;;15.00;70.00;;;13.57;87.16;97117.00;4936269;28;20039;-70
2022/07/08 05:35:57;;;;;;;5.88;1.52;;;15.10;69.70;;;13.60;86.37;97114.03;4949244;28;20042;-68
2022/07/08 05:38:23;;;;;;;8.35;1.50;;;15.10;69.40;;;13.66;87.66;97124.69;4965107;28;20035;-68
2022/07/08 05:40:49;;;;;;;5.88;1.45;;;15.20;69.50;;;13.71;86.06;97129.44;4933685;28;20515;-70
2022/07/08 05:43:15;;;;;;;6.25;1.23;;;15.30;68.90;;;13.79;86.91;97126.66;4951555;28;20035;-69
2022/07/08 05:45:40;;;;;;;7.72;1.50;;;15.40;68.90;;;13.87;85.30;97125.78;4945158;28;20035;-65
2022/07/08 05:48:06;;;;;;;9.18;1.77;;;15.50;67.80;;;14.00;84.48;97132.03;4967122;28;20046;-70
2022/07/08 05:50:32;;;;;;;7.90;3.72;;;15.70;67.20;;;14.09;83.72;97133.59;4968023;28;20035;-67
2022/07/08 05:52:57;;;;;;;8.00;3.33;;;15.80;66.30;;;14.18;84.82;97131.63;4948641;28;20070;-68
2022/07/08 05:55:23;;;;;;;7.45;1.33;;;15.90;66.20;;;14.26;82.82;97130.72;4948408;28;20478;-66
2022/07/08 05:57:49;;;;;;;7.13;1.50;;;16.10;64.90;;;14.36;82.32;97128.59;4963082;28;20035;-66
2022/07/08 06:00:15;;;;;;;6.28;1.20;;;16.10;64.10;;;14.47;82.47;97129.94;4947280;28;20086;-64
2022/07/08 06:02:41;;;;;;;6.88;1.45;;;16.30;65.20;;;14.57;82.13;97126.00;4967197;28;20086;-65
2022/07/08 06:05:07;;;;;;;4.35;1.20;;;16.40;64.70;;;14.65;80.89;97139.09;4968074;28;20077;-62
2022/07/08 06:07:33;;;;;;;5.15;1.20;;;16.40;63.60;;;14.77;81.04;97126.19;4949685;28;20034;-62
2022/07/08 06:09:59;;;;;;;7.32;1.33;;;16.70;63.70;;;14.93;80.85;97138.31;4935749;28;20043;-66
2022/07/08 06:12:25;;;;;;;6.43;1.60;;;17.00;62.50;;;15.14;80.31;97138.28;4949024;28;20031;-67
2022/07/08 06:14:51;;;;;;;5.78;1.63;;;17.30;61.20;;;15.36;79.23;97135.59;4965897;28;20148;-68
2022/07/08 06:17:17;;;;;;;6.40;1.30;;;17.50;61.10;;;15.51;79.30;97138.97;4951908;28;20543;-67
2022/07/08 06:19:42;;;;;;;5.07;1.30;;;17.60;61.30;;;15.69;79.11;97141.16;4935071;28;20498;-68
2022/07/08 06:22:09;;;;;;;5.05;1.45;;;17.90;59.20;;;15.84;77.81;97148.00;4945652;28;20046;-68
2022/07/08 06:24:34;;;;;;;7.43;1.52;;;18.00;59.10;;;15.97;77.44;97149.06;4948009;28;20483;-68
2022/07/08 06:27:00;;;;;;;6.18;1.40;;;18.10;58.90;;;16.08;75.47;97145.84;4941195;28;20039;-70
2022/07/08 06:29:26;;;;;;;6.10;1.48;;;18.20;56.90;;;16.20;75.40;97149.56;4952000;28;20061;-68
2022/07/08 06:31:52;;;;;;;6.05;1.25;;;18.50;56.60;;;16.30;75.56;97144.72;4964579;28;20031;-69
2022/07/08 06:34:18;;;;;;;7.20;1.40;;;18.60;56.80;;;16.45;74.40;97145.34;4948858;28;20125;-68
2022/07/08 06:36:43;;;;;;;3.88;1.05;;;18.80;55.20;;;16.57;73.55;97150.09;4961925;28;20352;-70
2022/07/08 06:39:09;;;;;;;2.88;1.13;;;18.90;53.90;;;16.63;71.83;97141.31;4933624;28;20066;-70
2022/07/08 06:41:35;;;;;;;5.38;1.00;;;19.00;52.40;;;16.76;71.20;97149.38;4947703;28;20042;-68
2022/07/08 06:44:01;;;;;;;4.13;1.38;;;19.30;52.70;;;16.91;71.82;97147.31;4933306;28;20043;-72
2022/07/08 06:46:26;;;;;;;5.93;1.38;;;19.60;52.80;;;17.09;70.28;97139.56;4951259;28;20027;-70
2022/07/08 06:48:52;;;;;;;6.30;1.10;;;19.70;51.00;;;17.27;70.50;97143.47;4949701;28;20042;-69
2022/07/08 06:51:18;;;;;;;6.93;1.33;;;20.10;51.10;;;17.48;68.78;97148.56;4966668;28;20034;-67
2022/07/08 06:56:28;;;;;;;4.53;0.90;;;20.20;49.40;;;17.74;68.10;97139.72;4941442;28;20078;-67
2022/07/08 06:58:54;;;;;;;6.38;1.50;;;20.10;49.70;;;17.84;67.15;97141.94;4945410;28;20031;-69
2022/07/08 07:01:19;;;;;;;5.32;1.27;;;20.30;49.40;;;17.94;67.50;97142.34;4950725;28;20082;-68
2022/07/08 07:03:45;;;;;;;6.65;1.38;;;20.60;49.10;;;18.10;65.69;97147.19;4931147;28;20031;-69
2022/07/08 07:06:11;;;;;;;4.60;1.10;;;20.50;48.30;;;18.15;64.58;97149.25;4932527;28;20040;-70
2022/07/08 07:08:37;;;;;;;3.25;1.10;;;20.40;48.10;;;18.19;64.56;97159.25;4947119;28;20121;-67
2022/07/08 07:11:02;;;;;;;7.53;1.77;;;20.70;47.30;;;18.31;64.49;97159.41;4948497;28;20039;-67
2022/07/08 07:13:28;;;;;;;6.90;1.40;;;21.10;47.60;;;18.50;64.68;97163.00;4931922;28;20156;-67
2022/07/08 07:15:54;;;;;;;13.35;1.50;;;21.40;47.00;;;18.74;63.62;97154.28;4925843;28;20075;-68
2022/07/08 07:18:20;;;;;;;4.38;1.20;;;21.70;45.00;;;18.96;63.50;97157.41;4947050;28;20039;-70
2022/07/08 07:20:45;;;;;;;11.57;7.63;;;21.60;45.90;;;19.09;63.29;97162.66;4947116;28;20495;-69
2022/07/08 07:23:11;;;;;;;9.38;4.60;;;21.40;47.00;;;19.15;62.67;97166.31;4963245;28;20066;-72
2022/07/08 07:25:37;;;;;;;5.13;1.48;;;21.10;46.60;;;19.11;60.90;97160.59;4966991;28;20062;-70
2022/07/08 07:28:03;;;;;;;10.88;3.75;;;21.00;46.70;;;19.08;60.42;97160.22;4918479;28;20050;-62
2022/07/08 07:30:28;;;;;;;5.90;1.38;;;20.80;47.10;;;19.02;60.03;97166.44;4949470;28;20032;-63
2022/07/08 07:32:54;;;;;;;4.00;1.50;;;20.80;48.20;;;18.91;60.92;97166.06;4946300;28;20204;-63
2022/07/08 07:35:20;;;;;;;8.05;1.55;;;20.60;47.50;;;18.85;60.13;97166.13;4965369;28;20063;-70
2022/07/08 07:37:46;;;;;;;5.25;1.50;;;20.80;47.70;;;18.84;60.14;97175.16;4934203;28;20226;-67
2022/07/08 07:40:12;;;;;;;4.03;1.02;;;20.90;48.00;;;18.79;59.46;97173.13;4965660;28;20035;-68
2022/07/08 07:42:38;;;;;;;5.75;1.27;;;20.60;46.70;;;18.73;60.34;97173.16;4963965;28;20081;-67
2022/07/08 07:45:05;;;;;;;6.32;1.27;;;20.60;47.60;;;18.68;60.30;97168.47;4965365;28;20035;-67
2022/07/08 07:47:31;;;;;;;8.77;2.30;;;20.60;48.20;;;18.68;60.68;97168.47;4931750;28;20039;-68
2022/07/08 07:49:57;;;;;;;6.72;2.38;;;20.50;48.50;;;18.66;60.30;97173.19;4945321;28;20050;-74
2022/07/08 07:52:22;;;;;;;6.47;1.80;;;20.50;48.10;;;18.58;60.81;97173.44;4947940;28;20518;-71
2022/07/08 07:54:48;;;;;;;6.80;1.73;;;20.40;49.40;;;18.55;61.31;97171.16;4963032;28;20047;-69
2022/07/08 07:57:14;;;;;;;5.50;1.70;;;20.60;48.40;;;18.68;61.06;97165.81;4919315;28;20519;-65
2022/07/08 07:59:41;;;;;;;3.50;1.30;;;21.20;47.40;;;18.78;61.08;97168.00;4931287;29;20038;-66
2022/07/08 08:02:07;;;;;;;8.38;1.52;;;21.20;48.20;;;18.91;60.91;97170.59;4928885;28;20587;-67
2022/07/08 08:04:33;;;;;;;5.18;1.05;;;21.50;46.90;;;19.16;60.65;97173.28;4949784;28;20078;-74
2022/07/08 08:06:59;;;;;;;6.25;1.10;;;21.90;45.90;;;19.36;59.56;97173.13;4930379;28;20134;-71
2022/07/08 08:09:24;;;;;;;4.60;1.13;;;21.70;45.60;;;19.57;60.10;97170.09;4964378;28;20043;-72
2022/07/08 08:11:50;;;;;;;3.05;1.23;;;22.50;45.20;;;20.00;60.15;97178.09;4950971;28;20499;-67
2022/07/08 08:14:16;;;;;;;4.00;1.27;;;23.20;44.90;;;20.30;58.65;97175.47;4965630;28;20086;-69
2022/07/08 08:16:41;;;;;;;5.55;1.15;;;22.90;42.90;;;20.40;57.20;97180.31;4933766;28;20456;-68
2022/07/08 08:19:07;;;;;;;5.90;1.35;;;22.60;43.40;;;20.39;56.80;97184.84;4934167;28;20557;-68
2022/07/08 08:21:35;;;;;;;5.63;1.20;;;22.40;44.60;;;20.32;56.47;97184.09;4950176;28;20046;-69
2022/07/08 08:24:01;;;;;;;4.90;1.55;;;22.10;43.70;;;20.25;55.86;97185.22;4948119;28;20518;-69
2022/07/08 08:26:26;;;;;;;10.32;4.95;;;22.00;44.90;;;20.12;56.14;97184.31;4932199;28;20042;-69
2022/07/08 08:28:52;;;;;;;8.25;1.75;;;21.80;45.70;;;20.11;56.17;97181.88;4934315;28;20039;-70
2022/07/08 08:31:18;;;;;;;4.53;1.13;;;22.10;45.80;;;20.11;56.24;97187.22;4933546;28;20078;-70
2022/07/08 08:33:43;;;;;;;4.07;1.48;;;22.00;45.50;;;20.11;56.86;97190.69;4941002;28;20051;-69
2022/07/08 08:36:09;;;;;;;6.32;1.08;;;22.10;45.20;;;20.05;56.19;97183.59;4913212;28;20078;-69
2022/07/08 08:38:35;;;;;;;4.32;1.30;;;21.90;45.40;;;19.96;56.40;97179.59;4948743;28;20039;-69
2022/07/08 08:41:01;;;;;;;4.35;1.27;;;21.70;45.90;;;19.92;56.58;97190.94;4965307;28;20058;-69
2022/07/08 08:43:27;;;;;;;4.00;1.35;;;21.70;45.90;;;19.85;55.99;97188.31;4949544;28;20109;-60
2022/07/08 08:45:52;;;;;;;5.07;1.40;;;21.70;45.70;;;19.82;56.11;97186.91;4932413;28;20043;-60
2022/07/08 08:48:23;;;;;;;5.93;1.65;;;21.80;45.30;;;19.89;55.86;97178.81;4964269;28;20038;-60
2022/07/08 08:50:55;;;;;;;4.88;1.02;;;22.00;44.40;;;19.96;54.78;97195.59;4933225;28;20458;-70
2022/07/08 08:53:30;;;;;;;6.85;1.25;;;22.20;44.30;;;20.01;53.74;97193.06;4950239;28;20035;-63
2022/07/08 08:55:56;;;;;;;5.38;1.20;;;22.40;43.40;;;20.06;54.66;97192.41;4954374;28;20434;-70
2022/07/08 08:58:22;;;;;;;3.22;1.00;;;22.20;42.40;;;20.07;54.70;97191.38;4950943;28;20031;-69
2022/07/08 09:00:48;;;;;;;5.80;1.48;;;22.40;43.40;;;20.19;55.32;97185.06;4947361;28;20146;-67
2022/07/08 09:03:14;;;;;;;4.45;1.00;;;22.50;44.20;;;20.31;55.07;97187.00;4969049;28;20035;-69
2022/07/08 09:05:40;;;;;;;4.70;1.10;;;22.60;43.40;;;20.58;54.12;97188.31;4969642;28;20204;-69
2022/07/08 09:08:05;;;;;;;4.45;1.40;;;23.50;42.00;;;20.97;54.27;97188.81;4950966;28;20043;-69
2022/07/08 09:10:31;;;;;;;4.82;1.38;;;24.00;41.70;;;21.21;53.65;97192.38;4968738;28;20042;-69
2022/07/08 09:13:07;;;;;;;6.40;1.30;;;24.00;40.30;;;21.35;50.43;97193.84;4969403;28;20325;-70
2022/07/08 09:15:38;;;;;;;6.20;1.15;;;23.60;40.50;;;21.34;50.56;97195.69;4954033;28;20123;-70
2022/07/08 09:18:18;;;;;;;4.88;1.05;;;23.50;40.70;;;21.34;51.01;97186.84;4953364;28;20081;-70
2022/07/08 09:20:53;;;;;;;5.70;1.30;;;23.60;41.60;;;21.28;49.84;97195.81;4952039;28;20085;-71
2022/07/08 09:23:27;;;;;;;6.38;1.05;;;23.40;41.10;;;21.28;50.67;97188.59;4934547;28;20511;-71
2022/07/08 09:25:54;;;;;;;6.57;1.20;;;23.50;41.50;;;21.30;51.47;97189.19;4953954;28;20097;-70
2022/07/08 09:28:45;;;;;;;3.22;1.00;;;23.30;40.40;;;21.15;47.68;97183.41;4968483;28;20087;-70
2022/07/08 09:31:13;;;;;;;3.95;1.30;;;22.80;39.40;;;20.95;49.30;97182.88;4953732;28;20039;-71
2022/07/08 09:33:38;;;;;;;4.65;0.80;;;22.50;40.30;;;20.79;49.17;97190.50;4953201;28;20035;-71
2022/07/08 09:36:05;;;;;;;2.40;1.10;;;22.20;41.20;;;20.63;50.50;97196.50;4968934;28;20137;-69
2022/07/08 09:38:36;;;;;;;3.25;1.00;;;22.10;42.00;;;20.50;49.82;97185.97;4950720;28;20035;-71
2022/07/08 09:41:04;;;;;;;3.05;0.93;;;21.90;42.10;;;20.40;50.12;97191.00;4954324;28;20044;-71
2022/07/08 09:43:30;;;;;;;5.47;1.30;;;22.00;42.70;;;20.36;50.84;97187.13;4936261;28;20045;-71
2022/07/08 09:46:06;;;;;;;5.03;0.82;;;22.00;43.30;;;20.33;49.25;97190.25;4951819;28;20130;-63
2022/07/08 09:48:32;;;;;;;6.93;3.92;;;22.10;41.90;;;20.32;50.63;97193.97;4967942;28;20038;-64
2022/07/08 09:51:08;;;;;;;5.07;2.10;;;22.10;42.40;;;20.36;50.73;97203.16;4949306;28;20047;-65
2022/07/08 09:53:38;;;;;;;6.70;1.15;;;22.20;42.60;;;20.36;50.36;97198.63;4967897;28;20168;-65
2022/07/08 09:56:04;;;;;;;3.15;1.20;;;22.30;42.00;;;20.66;50.21;97188.03;4954623;28;20085;-65
2022/07/08 09:58:32;;;;;;;5.88;1.20;;;23.30;40.50;;;20.93;50.29;97190.31;4967336;28;20118;-68
2022/07/08 10:01:00;;;;;;;4.55;1.20;;;23.60;40.00;;;21.10;50.66;97192.13;4936012;28;20031;-69
2022/07/08 10:03:25;;;;;;;3.95;1.38;;;23.70;40.50;;;21.18;49.54;97190.97;4950575;28;20050;-70
2022/07/08 10:05:51;;;;;;;4.38;1.20;;;23.60;39.20;;;21.23;49.25;97199.13;4967145;28;20039;-68
2022/07/08 10:08:18;;;;;;;3.97;1.20;;;23.30;39.50;;;21.25;49.07;97198.94;4935493;28;20410;-69
2022/07/08 10:10:45;;;;;;;4.28;1.10;;;23.20;39.80;;;21.23;48.74;97196.44;4951779;28;20109;-68
2022/07/08 10:13:11;;;;;;;4.90;0.85;;;23.10;39.80;;;21.18;48.80;97199.00;4951229;28;20031;-75
2022/07/08 10:15:37;;;;;;;5.88;1.10;;;23.10;39.90;;;21.13;48.97;97204.22;4936867;28;20031;-77
2022/07/08 10:18:30;;;;;;;3.97;1.30;;;23.10;40.30;;;21.13;48.60;97206.91;4951948;28;20514;-75
2022/07/08 10:20:57;;;;;;;4.65;1.00;;;23.30;41.10;;;21.17;49.46;97202.72;4943289;28;20470;-76